createdAt,value
2019-03-19T00:00:27.243Z,101273.25
2019-03-19T00:02:56.086Z,101276.69
2019-03-19T00:05:25.064Z,101281.14
2019-03-19T00:07:53.944Z,101288.02
2019-03-19T00:10:22.873Z,101275.41
2019-03-19T00:12:51.799Z,101281.06
2019-03-19T00:15:20.797Z,101280.10
2019-03-19T00:17:49.670Z,101280.58
2019-03-19T00:20:18.652Z,101282.16
2019-03-19T00:22:47.659Z,101285.88
2019-03-19T00:25:16.566Z,101284.91
2019-03-19T00:27:45.459Z,101292.13
2019-03-19T00:30:14.545Z,101292.70
2019-03-19T00:32:43.383Z,101299.17
2019-03-19T00:35:12.532Z,101298.84
2019-03-19T00:37:41.379Z,101287.81
2019-03-19T00:40:11.021Z,101299.36
2019-03-19T00:42:40.184Z,101306.46
2019-03-19T00:45:09.434Z,101309.34
2019-03-19T00:47:38.292Z,101306.95
2019-03-19T00:50:07.690Z,101300.81
2019-03-19T00:52:36.636Z,101299.98
2019-03-19T00:55:05.827Z,101306.09
2019-03-19T00:57:34.602Z,101302.27
2019-03-19T01:00:04.257Z,101307.19
2019-03-19T01:02:33.276Z,101304.66
2019-03-19T01:05:02.094Z,101313.31
2019-03-19T01:07:30.974Z,101198.53
2019-03-19T01:09:59.803Z,101307.20
2019-03-19T01:12:28.714Z,101307.94
2019-03-19T01:14:57.475Z,101311.91
2019-03-19T01:17:26.340Z,101313.67
2019-03-19T01:19:56.331Z,101315.84
2019-03-19T01:22:25.207Z,101300.47
2019-03-19T01:24:54.123Z,101300.43
2019-03-19T01:27:23.080Z,101298.04
2019-03-19T01:29:51.931Z,101297.78
2019-03-19T01:32:20.771Z,101293.46
2019-03-19T01:34:49.545Z,101292.27
2019-03-19T01:37:18.447Z,101297.95
2019-03-19T01:39:47.383Z,101304.08
2019-03-19T01:42:16.226Z,101301.05
2019-03-19T01:44:45.169Z,101299.14
2019-03-19T01:47:18.637Z,101305.75
2019-03-19T01:49:47.673Z,101301.53
2019-03-19T01:52:16.669Z,101302.10
2019-03-19T01:54:45.628Z,101308.20
2019-03-19T01:57:14.450Z,101311.53
2019-03-19T01:59:43.223Z,101310.52
2019-03-19T02:02:12.256Z,101313.64
2019-03-19T02:04:41.101Z,101313.42
2019-03-19T02:07:09.894Z,101310.30
2019-03-19T02:09:38.768Z,101311.45
2019-03-19T02:12:07.667Z,101315.76
2019-03-19T02:14:36.567Z,101308.69
2019-03-19T02:17:05.496Z,101306.12
2019-03-19T02:19:34.339Z,101311.95
2019-03-19T02:22:03.311Z,101309.34
2019-03-19T02:24:32.220Z,101311.19
2019-03-19T02:27:01.346Z,101317.57
2019-03-19T02:29:30.339Z,101321.43
2019-03-19T02:31:59.260Z,101326.59
2019-03-19T02:34:29.105Z,101339.13
2019-03-19T02:36:58.007Z,101333.91
2019-03-19T02:39:26.974Z,101335.48
2019-03-19T02:41:55.886Z,101337.47
2019-03-19T02:44:24.666Z,101333.91
2019-03-19T02:46:53.576Z,101341.64
2019-03-19T02:49:22.629Z,101343.38
2019-03-19T02:51:51.522Z,101341.47
2019-03-19T02:54:20.464Z,101342.07
2019-03-19T02:56:49.347Z,101336.17
2019-03-19T02:59:18.286Z,101344.46
2019-03-19T03:01:47.265Z,101351.55
2019-03-19T03:04:16.234Z,101345.67
2019-03-19T03:06:45.213Z,101352.97
2019-03-19T03:09:14.070Z,101351.41
2019-03-19T03:11:43.023Z,101357.39
2019-03-19T03:14:11.862Z,101362.34
2019-03-19T03:16:40.803Z,101353.24
2019-03-19T03:19:09.818Z,101359.73
2019-03-19T03:21:38.662Z,101370.05
2019-03-19T03:24:07.622Z,101362.81
2019-03-19T03:26:47.798Z,101364.66
2019-03-19T03:29:07.989Z,101373.77
2019-03-19T03:31:36.890Z,101374.23
2019-03-19T03:34:05.894Z,101372.73
2019-03-19T03:36:34.724Z,101383.61
2019-03-19T03:39:04.666Z,101380.47
2019-03-19T03:41:33.596Z,101381.94
2019-03-19T03:44:02.562Z,101386.26
2019-03-19T03:46:31.411Z,101384.43
2019-03-19T03:49:00.359Z,101394.06
2019-03-19T03:51:29.229Z,101395.38
2019-03-19T03:53:58.098Z,101403.31
2019-03-19T03:56:26.934Z,101403.49
2019-03-19T03:59:00.963Z,101408.02
2019-03-19T04:01:26.495Z,101409.56
2019-03-19T04:03:55.356Z,101408.38
2019-03-19T04:06:24.226Z,101410.76
2019-03-19T04:08:53.006Z,101424.98
2019-03-19T04:11:21.745Z,101416.86
2019-03-19T04:13:50.561Z,101418.66
2019-03-19T04:16:19.421Z,101418.30
2019-03-19T04:18:48.272Z,101417.73
2019-03-19T04:21:17.232Z,101421.42
2019-03-19T04:23:46.221Z,101426.67
2019-03-19T04:26:15.194Z,101430.99
2019-03-19T04:28:44.165Z,101436.92
2019-03-19T04:31:13.111Z,101436.39
2019-03-19T04:33:42.087Z,101440.04
2019-03-19T04:36:10.966Z,101443.66
2019-03-19T04:38:39.775Z,101461.77
2019-03-19T04:41:08.680Z,101462.09
2019-03-19T04:43:37.554Z,101466.24
2019-03-19T04:46:06.422Z,101465.02
2019-03-19T04:48:35.394Z,101468.59
2019-03-19T04:51:04.720Z,101458.22
2019-03-19T04:53:33.585Z,101464.80
2019-03-19T04:56:02.377Z,101465.70
2019-03-19T04:58:31.186Z,101465.70
2019-03-19T05:01:00.200Z,101466.24
2019-03-19T05:03:29.187Z,101460.52
2019-03-19T05:05:59.642Z,101464.32
2019-03-19T05:08:28.783Z,101468.28
2019-03-19T05:10:57.581Z,101468.44
2019-03-19T05:13:26.340Z,101473.66
2019-03-19T05:15:55.410Z,101475.14
2019-03-19T05:18:24.189Z,101476.02
2019-03-19T05:20:53.102Z,101477.70
2019-03-19T05:23:21.992Z,101474.09
2019-03-19T05:25:50.795Z,101475.78
2019-03-19T05:28:19.606Z,101474.13
2019-03-19T05:30:48.422Z,101480.86
2019-03-19T05:33:19.402Z,101479.14
2019-03-19T05:35:47.865Z,101498.02
2019-03-19T05:38:16.775Z,101497.14
2019-03-19T05:40:45.632Z,101503.07
2019-03-19T05:43:14.593Z,101497.42
2019-03-19T05:45:43.449Z,101510.98
2019-03-19T05:48:12.274Z,101512.87
2019-03-19T05:50:41.289Z,101516.34
2019-03-19T05:53:10.098Z,101516.28
2019-03-19T05:55:38.972Z,101516.08
2019-03-19T05:58:07.866Z,101511.77
2019-03-19T06:00:37.369Z,101509.55
2019-03-19T06:03:06.345Z,101514.99
2019-03-19T06:05:35.146Z,101528.65
2019-03-19T06:08:04.007Z,101530.05
2019-03-19T06:10:32.999Z,101525.25
2019-03-19T06:13:01.890Z,101529.30
2019-03-19T06:15:30.878Z,101533.89
2019-03-19T06:17:59.767Z,101536.89
2019-03-19T06:20:28.706Z,101542.95
2019-03-19T06:22:57.588Z,101541.15
2019-03-19T06:25:26.530Z,101548.75
2019-03-19T06:28:00.261Z,101552.47
2019-03-19T06:30:26.064Z,101561.91
2019-03-19T06:32:55.041Z,101560.72
2019-03-19T06:35:24.123Z,101560.75
2019-03-19T06:37:53.012Z,101569.16
2019-03-19T06:40:22.441Z,101572.34
2019-03-19T06:42:51.518Z,101569.11
2019-03-19T06:45:22.882Z,101577.90
2019-03-19T06:47:51.280Z,101579.95
2019-03-19T06:50:20.545Z,101587.52
2019-03-19T06:52:49.542Z,101581.02
2019-03-19T06:55:18.872Z,101585.69
2019-03-19T06:57:48.247Z,101593.52
2019-03-19T07:00:18.278Z,101589.19
2019-03-19T07:02:47.273Z,101597.75
2019-03-19T07:05:16.713Z,101591.61
2019-03-19T07:07:45.643Z,101590.55
2019-03-19T07:10:14.633Z,101595.81
2019-03-19T07:12:43.603Z,101596.07
2019-03-19T07:15:13.625Z,101595.55
2019-03-19T07:17:42.495Z,101603.63
2019-03-19T07:20:13.049Z,101604.95
2019-03-19T07:22:42.035Z,101603.63
2019-03-19T07:25:11.134Z,101605.03
2019-03-19T07:27:40.100Z,101605.55
2019-03-19T07:30:13.141Z,101604.44
2019-03-19T07:32:42.235Z,101613.09
2019-03-19T07:35:11.325Z,101607.86
2019-03-19T07:37:43.348Z,101609.43
2019-03-19T07:40:12.590Z,101610.02
2019-03-19T07:42:41.756Z,101612.34
2019-03-19T07:45:13.142Z,101615.56
2019-03-19T07:47:42.196Z,101611.27
2019-03-19T07:50:12.540Z,101618.86
2019-03-19T07:52:41.399Z,101613.98
2019-03-19T07:55:10.486Z,101614.31
2019-03-19T07:57:39.374Z,101605.11
2019-03-19T08:00:09.808Z,101607.84
2019-03-19T08:02:38.756Z,101609.16
2019-03-19T08:05:08.736Z,101620.46
2019-03-19T08:07:37.625Z,101621.54
2019-03-19T08:10:06.966Z,101617.62
2019-03-19T08:12:35.999Z,101620.63
2019-03-19T08:15:05.633Z,101623.91
2019-03-19T08:17:34.613Z,101633.92
2019-03-19T08:20:03.832Z,101645.84
2019-03-19T08:22:32.758Z,101645.14
2019-03-19T08:25:01.821Z,101641.94
2019-03-19T08:27:30.693Z,101646.38
2019-03-19T08:29:59.776Z,101649.04
2019-03-19T08:32:28.755Z,101645.66
2019-03-19T08:34:57.825Z,101645.66
2019-03-19T08:37:26.808Z,101652.39
2019-03-19T08:39:56.725Z,101657.72
2019-03-19T08:42:25.773Z,101659.53
2019-03-19T08:44:54.553Z,101659.74
2019-03-19T08:47:23.505Z,101663.73
2019-03-19T08:49:52.379Z,101668.98
2019-03-19T08:52:21.427Z,101672.64
2019-03-19T08:54:50.375Z,101672.16
2019-03-19T08:57:19.248Z,101671.41
2019-03-19T08:59:48.115Z,101680.41
2019-03-19T09:02:17.277Z,101677.48
2019-03-19T09:04:46.190Z,101678.12
2019-03-19T09:07:15.196Z,101680.95
2019-03-19T09:09:44.008Z,101675.33
2019-03-19T09:12:12.920Z,101678.66
2019-03-19T09:14:42.018Z,101682.41
2019-03-19T09:17:11.048Z,101680.62
2019-03-19T09:19:41.030Z,101676.66
2019-03-19T09:22:10.052Z,101676.47
2019-03-19T09:24:38.820Z,101677.14
2019-03-19T09:27:07.782Z,101683.30
2019-03-19T09:29:36.799Z,101685.69
2019-03-19T09:32:05.754Z,101684.84
2019-03-19T09:34:34.690Z,101687.94
2019-03-19T09:37:03.971Z,101692.27
2019-03-19T09:39:32.903Z,101685.06
2019-03-19T09:42:01.919Z,101687.13
2019-03-19T09:44:30.864Z,101691.64
2019-03-19T09:46:59.792Z,101687.69
2019-03-19T09:49:28.750Z,101685.39
2019-03-19T09:51:57.759Z,101685.99
2019-03-19T09:54:26.774Z,101688.97
2019-03-19T09:56:55.790Z,101685.84
2019-03-19T09:59:27.382Z,101681.31
2019-03-19T10:01:55.588Z,101683.21
2019-03-19T10:04:24.519Z,101679.62
2019-03-19T10:06:53.330Z,101678.16
2019-03-19T10:09:22.687Z,101681.20
2019-03-19T10:11:51.635Z,101683.57
2019-03-19T10:14:20.611Z,101675.75
2019-03-19T10:16:49.521Z,101679.75
2019-03-19T10:19:18.536Z,101680.87
2019-03-19T10:21:47.582Z,101680.73
2019-03-19T10:24:16.658Z,101684.22
2019-03-19T10:26:45.675Z,101677.86
2019-03-19T10:29:14.642Z,101684.95
2019-03-19T10:31:43.580Z,101688.31
2019-03-19T10:34:12.474Z,101666.81
2019-03-19T10:36:41.389Z,101683.94
2019-03-19T10:39:10.565Z,101683.94
2019-03-19T10:41:39.381Z,101697.77
2019-03-19T10:44:08.405Z,101694.69
2019-03-19T10:46:37.432Z,101699.38
2019-03-19T10:49:06.429Z,101692.84
2019-03-19T10:51:35.397Z,101693.81
2019-03-19T10:54:04.486Z,101697.92
2019-03-19T10:56:33.416Z,101698.27
2019-03-19T10:59:02.541Z,101697.01
2019-03-19T11:01:31.532Z,101699.76
2019-03-19T11:04:00.475Z,101694.98
2019-03-19T11:06:29.376Z,101689.42
2019-03-19T11:08:58.338Z,101687.63
2019-03-19T11:11:27.375Z,101688.73
2019-03-19T11:13:56.263Z,101691.36
2019-03-19T11:16:25.369Z,101692.45
2019-03-19T11:18:57.526Z,101692.53
2019-03-19T11:21:26.435Z,101698.71
2019-03-19T11:23:55.252Z,101693.51
2019-03-19T11:26:24.207Z,101696.30
2019-03-19T11:28:53.248Z,101691.61
2019-03-19T11:31:22.147Z,101701.31
2019-03-19T11:33:51.129Z,101700.70
2019-03-19T11:36:20.069Z,101690.30
2019-03-19T11:38:49.079Z,101687.63
2019-03-19T11:41:18.030Z,101686.65
2019-03-19T11:43:46.949Z,101689.30
2019-03-19T11:46:15.868Z,101678.26
2019-03-19T11:48:45.042Z,101681.62
2019-03-19T11:51:14.160Z,101683.64
2019-03-19T11:53:43.119Z,101683.80
2019-03-19T11:56:11.983Z,101679.59
2019-03-19T11:58:40.927Z,101679.92
2019-03-19T12:01:09.924Z,101674.22
2019-03-19T12:03:38.835Z,101681.96
2019-03-19T12:06:07.823Z,101683.29
2019-03-19T12:08:36.678Z,101623.12
2019-03-19T12:11:05.798Z,101684.97
2019-03-19T12:13:34.827Z,101682.96
2019-03-19T12:16:04.007Z,101683.63
2019-03-19T12:18:32.907Z,101683.95
2019-03-19T12:21:05.732Z,101691.16
2019-03-19T12:23:34.726Z,101683.96
2019-03-19T12:26:03.704Z,101686.65
2019-03-19T12:28:39.590Z,101685.65
2019-03-19T12:31:05.148Z,101687.64
2019-03-19T12:33:40.948Z,101692.13
2019-03-19T12:36:04.701Z,101685.12
2019-03-19T12:38:33.549Z,101680.59
2019-03-19T12:41:02.433Z,101677.75
2019-03-19T12:43:31.328Z,101681.11
2019-03-19T12:46:00.188Z,101673.24
2019-03-19T12:48:29.026Z,101676.09
2019-03-19T12:50:57.933Z,101687.64
2019-03-19T12:53:26.878Z,101680.77
2019-03-19T12:55:56.472Z,101673.72
2019-03-19T12:58:25.427Z,101673.25
2019-03-19T13:00:55.699Z,101671.22
2019-03-19T13:03:24.645Z,101666.81
2019-03-19T13:05:53.667Z,101664.44
2019-03-19T13:08:22.609Z,101672.49
2019-03-19T13:10:51.603Z,101656.16
2019-03-19T13:13:20.511Z,101659.00
2019-03-19T13:15:49.728Z,101653.21
2019-03-19T13:18:18.723Z,101648.69
2019-03-19T13:20:47.632Z,101652.72
2019-03-19T13:23:16.541Z,101651.01
2019-03-19T13:25:45.465Z,101652.39
2019-03-19T13:28:14.368Z,101647.52
2019-03-19T13:30:45.448Z,101643.83
2019-03-19T13:33:13.881Z,101637.28
2019-03-19T13:35:42.855Z,101644.39
2019-03-19T13:38:12.796Z,101642.38
2019-03-19T13:40:41.945Z,101646.93
2019-03-19T13:43:10.814Z,101649.78
2019-03-19T13:45:39.796Z,101658.62
2019-03-19T13:48:08.705Z,101656.11
2019-03-19T13:50:37.637Z,101650.20
2019-03-19T13:53:06.664Z,101643.45
2019-03-19T13:55:35.754Z,101646.30
2019-03-19T13:58:06.930Z,101641.69
2019-03-19T14:00:36.119Z,101649.95
2019-03-19T14:03:05.400Z,101648.10
2019-03-19T14:05:34.307Z,101647.39
2019-03-19T14:08:03.324Z,101642.38
2019-03-19T14:10:32.177Z,101643.36
2019-03-19T14:13:01.103Z,101643.36
2019-03-19T14:15:30.069Z,101645.70
2019-03-19T14:17:58.864Z,101648.77
2019-03-19T14:20:27.770Z,101646.38
2019-03-19T14:22:56.681Z,101643.45
2019-03-19T14:25:25.712Z,101640.97
2019-03-19T14:27:54.679Z,101640.76
2019-03-19T14:30:23.680Z,101637.41
2019-03-19T14:32:52.729Z,101638.67
2019-03-19T14:35:21.721Z,101640.13
2019-03-19T14:37:50.641Z,101644.95
2019-03-19T14:40:19.945Z,101640.03
2019-03-19T14:42:49.070Z,101636.51
2019-03-19T14:45:18.346Z,101634.23
2019-03-19T14:47:47.403Z,101639.70
2019-03-19T14:50:16.871Z,101630.30
2019-03-19T14:52:45.744Z,101642.22
2019-03-19T14:55:14.732Z,101641.56
2019-03-19T14:57:43.916Z,101645.56
2019-03-19T15:00:14.404Z,101645.56
2019-03-19T15:02:43.459Z,101648.93
2019-03-19T15:05:12.935Z,101648.96
2019-03-19T15:07:41.919Z,101649.02
2019-03-19T15:10:12.792Z,101647.30
2019-03-19T15:12:41.755Z,101651.53
2019-03-19T15:15:12.392Z,101649.19
2019-03-19T15:17:41.197Z,101649.61
2019-03-19T15:20:12.665Z,101645.02
2019-03-19T15:22:41.626Z,101641.08
2019-03-19T15:25:10.519Z,101642.97
2019-03-19T15:27:39.583Z,101642.52
2019-03-19T15:30:08.952Z,101643.61
2019-03-19T15:32:37.990Z,101642.45
2019-03-19T15:35:08.376Z,101655.30
2019-03-19T15:37:37.294Z,101649.55
2019-03-19T15:40:07.909Z,101648.72
2019-03-19T15:42:36.726Z,101647.03
2019-03-19T15:45:07.614Z,101648.73
2019-03-19T15:47:36.721Z,101664.11
2019-03-19T15:50:06.804Z,101662.33
2019-03-19T15:52:35.832Z,101658.17
2019-03-19T15:55:05.023Z,101647.33
2019-03-19T15:57:34.008Z,101658.33
2019-03-19T16:00:03.215Z,101654.48
2019-03-19T16:02:32.104Z,101650.17
2019-03-19T16:05:01.043Z,101659.75
2019-03-19T16:07:29.987Z,101659.75
2019-03-19T16:09:58.900Z,101664.92
2019-03-19T16:12:27.977Z,101670.56
2019-03-19T16:14:56.848Z,101674.97
2019-03-19T16:17:26.009Z,101677.75
2019-03-19T16:19:54.927Z,101688.46
2019-03-19T16:22:23.853Z,101689.06
2019-03-19T16:24:52.730Z,101686.12
2019-03-19T16:27:21.737Z,101685.33
2019-03-19T16:29:50.963Z,101692.58
2019-03-19T16:32:20.041Z,101694.93
2019-03-19T16:34:48.978Z,101695.87
2019-03-19T16:37:17.768Z,101702.29
2019-03-19T16:39:46.606Z,101704.78
2019-03-19T16:42:15.521Z,101702.37
2019-03-19T16:44:44.542Z,101700.66
2019-03-19T16:47:13.447Z,101700.75
2019-03-19T16:49:42.605Z,101709.45
2019-03-19T16:52:11.684Z,101718.74
2019-03-19T16:54:40.652Z,101717.84
2019-03-19T16:57:09.631Z,101726.58
2019-03-19T16:59:38.462Z,101719.91
2019-03-19T17:02:07.429Z,101732.52
2019-03-19T17:04:36.292Z,101726.00
2019-03-19T17:07:05.231Z,101737.41
2019-03-19T17:09:34.149Z,101732.86
2019-03-19T17:12:03.076Z,101732.80
2019-03-19T17:14:32.002Z,101737.84
2019-03-19T17:17:00.887Z,101742.92
2019-03-19T17:19:29.781Z,101745.92
2019-03-19T17:21:58.797Z,101750.45
2019-03-19T17:24:29.098Z,101751.59
2019-03-19T17:26:58.011Z,101752.66
2019-03-19T17:29:26.932Z,101756.73
2019-03-19T17:31:55.957Z,101761.77
2019-03-19T17:34:24.895Z,101768.47
2019-03-19T17:36:53.794Z,101773.98
2019-03-19T17:39:22.723Z,101773.13
2019-03-19T17:41:51.744Z,101735.20
2019-03-19T17:44:20.564Z,101774.77
2019-03-19T17:46:49.455Z,101773.73
2019-03-19T17:49:19.067Z,101784.45
2019-03-19T17:51:47.916Z,101783.09
2019-03-19T17:54:16.899Z,101783.85
2019-03-19T17:56:45.758Z,101788.61
2019-03-19T17:59:14.655Z,101794.61
2019-03-19T18:01:43.559Z,101799.63
2019-03-19T18:04:12.381Z,101800.59
2019-03-19T18:06:43.084Z,101812.89
2019-03-19T18:09:11.866Z,101809.29
2019-03-19T18:11:40.763Z,101812.08
2019-03-19T18:14:09.742Z,101814.39
2019-03-19T18:16:38.702Z,101815.89
2019-03-19T18:19:07.656Z,101820.11
2019-03-19T18:21:36.670Z,101827.71
2019-03-19T18:24:05.563Z,101824.65
2019-03-19T18:26:34.977Z,101827.78
2019-03-19T18:29:03.892Z,101821.73
2019-03-19T18:31:32.826Z,101827.74
2019-03-19T18:34:10.183Z,101829.52
2019-03-19T18:36:33.854Z,101829.89
2019-03-19T18:39:02.736Z,101838.06
2019-03-19T18:41:31.767Z,101834.97
2019-03-19T18:44:01.035Z,101830.96
2019-03-19T18:46:29.874Z,101838.80
2019-03-19T18:48:58.707Z,101850.01
2019-03-19T18:51:27.528Z,101850.10
2019-03-19T18:53:57.153Z,101857.16
2019-03-19T18:56:26.035Z,101853.92
2019-03-19T18:58:54.943Z,101852.06
2019-03-19T19:01:23.867Z,101861.53
2019-03-19T19:03:52.913Z,101865.80
2019-03-19T19:06:21.842Z,101862.69
2019-03-19T19:08:50.651Z,101869.45
2019-03-19T19:11:19.500Z,101869.03
2019-03-19T19:13:48.492Z,101869.52
2019-03-19T19:16:17.411Z,101873.68
2019-03-19T19:18:46.402Z,101876.20
2019-03-19T19:21:15.366Z,101877.63
2019-03-19T19:23:44.264Z,101883.75
2019-03-19T19:26:13.350Z,101879.11
2019-03-19T19:28:42.449Z,101886.00
2019-03-19T19:31:11.373Z,101887.11
2019-03-19T19:33:40.253Z,101892.39
2019-03-19T19:36:09.276Z,101898.48
2019-03-19T19:38:38.058Z,101903.03
2019-03-19T19:41:07.041Z,101903.94
2019-03-19T19:43:35.998Z,101896.33
2019-03-19T19:46:05.263Z,101897.45
2019-03-19T19:48:34.255Z,101897.61
2019-03-19T19:51:03.176Z,101897.16
2019-03-19T19:53:32.008Z,101900.13
2019-03-19T19:56:00.812Z,101900.27
2019-03-19T19:58:29.713Z,101904.98
2019-03-19T20:00:58.612Z,101897.59
2019-03-19T20:03:27.624Z,101902.56
2019-03-19T20:05:56.438Z,101908.80
2019-03-19T20:08:25.314Z,101913.49
2019-03-19T20:10:54.546Z,101910.83
2019-03-19T20:13:23.438Z,101912.79
2019-03-19T20:15:52.244Z,101914.89
2019-03-19T20:18:21.184Z,101919.69
2019-03-19T20:20:50.152Z,101926.48
2019-03-19T20:23:19.054Z,101929.57
2019-03-19T20:25:48.036Z,101931.08
2019-03-19T20:28:16.991Z,101938.45
2019-03-19T20:30:46.175Z,101878.84
2019-03-19T20:33:24.470Z,101941.14
2019-03-19T20:35:45.575Z,101939.97
2019-03-19T20:38:14.397Z,101941.69
2019-03-19T20:40:43.233Z,101942.66
2019-03-19T20:43:12.079Z,101946.45
2019-03-19T20:45:40.938Z,101950.00
2019-03-19T20:48:09.894Z,101957.70
2019-03-19T20:50:38.924Z,101959.41
2019-03-19T20:53:07.877Z,101959.81
2019-03-19T20:55:36.965Z,101972.75
2019-03-19T20:58:06.002Z,101972.75
2019-03-19T21:00:34.967Z,101969.47
2019-03-19T21:03:04.699Z,101975.77
2019-03-19T21:05:33.807Z,101975.41
2019-03-19T21:08:03.164Z,101977.62
2019-03-19T21:10:32.116Z,101980.95
2019-03-19T21:13:01.140Z,101984.84
2019-03-19T21:15:30.224Z,101989.80
2019-03-19T21:17:59.420Z,101992.95
2019-03-19T21:20:28.313Z,101993.53
2019-03-19T21:22:57.115Z,101995.83
2019-03-19T21:25:25.894Z,101994.52
2019-03-19T21:27:54.779Z,102003.81
2019-03-19T21:30:23.747Z,102001.28
2019-03-19T21:32:52.959Z,102005.35
2019-03-19T21:35:22.281Z,101999.25
2019-03-19T21:37:51.356Z,101998.37
2019-03-19T21:40:20.565Z,102010.90
2019-03-19T21:42:49.590Z,102010.22
2019-03-19T21:45:18.762Z,102005.77
2019-03-19T21:47:47.749Z,102008.40
2019-03-19T21:50:16.807Z,102015.86
2019-03-19T21:52:46.006Z,102010.19
2019-03-19T21:55:14.995Z,102016.92
2019-03-19T21:57:43.883Z,102017.84
2019-03-19T22:00:16.129Z,102007.91
2019-03-19T22:02:45.083Z,102009.44
2019-03-19T22:05:14.254Z,102020.41
2019-03-19T22:07:43.199Z,102014.75
2019-03-19T22:10:13.225Z,102019.17
2019-03-19T22:12:42.446Z,102019.39
2019-03-19T22:15:14.442Z,102019.96
2019-03-19T22:17:43.664Z,102028.12
2019-03-19T22:20:14.237Z,102032.88
2019-03-19T22:22:43.150Z,102031.42
2019-03-19T22:25:12.370Z,102029.09
2019-03-19T22:27:41.439Z,102029.86
2019-03-19T22:30:13.134Z,102045.12
2019-03-19T22:32:42.130Z,102037.08
2019-03-19T22:35:11.432Z,102037.01
2019-03-19T22:37:43.504Z,102038.90
2019-03-19T22:40:17.612Z,102035.27
2019-03-19T22:42:46.572Z,102040.81
2019-03-19T22:45:15.638Z,102041.78
2019-03-19T22:47:44.815Z,102046.00
2019-03-19T22:50:17.202Z,102047.39
2019-03-19T22:52:55.845Z,102050.25
2019-03-19T22:55:29.419Z,102053.36
2019-03-19T22:57:59.873Z,102059.63
2019-03-19T23:00:49.523Z,101786.30
2019-03-19T23:03:19.972Z,102070.63
2019-03-19T23:05:49.018Z,102070.78
2019-03-19T23:08:17.919Z,102065.69
2019-03-19T23:10:46.763Z,102076.93
2019-03-19T23:13:16.162Z,102073.63
2019-03-19T23:15:44.912Z,102081.61
2019-03-19T23:18:13.715Z,102079.08
2019-03-19T23:20:42.607Z,102079.17
2019-03-19T23:23:11.485Z,102087.28
2019-03-19T23:25:40.339Z,102083.42
2019-03-19T23:28:09.210Z,102077.05
2019-03-19T23:30:38.033Z,102084.86
2019-03-19T23:33:07.110Z,102081.63
2019-03-19T23:35:36.031Z,102084.85
2019-03-19T23:38:04.916Z,102083.16
2019-03-19T23:40:33.741Z,102081.14
2019-03-19T23:43:02.729Z,102077.98
2019-03-19T23:45:32.948Z,102080.78
2019-03-19T23:48:01.775Z,102081.97
2019-03-19T23:50:30.759Z,102082.39
2019-03-19T23:53:07.194Z,102086.14
2019-03-19T23:55:36.161Z,102085.22
2019-03-19T23:58:05.156Z,102093.63
